createdAt,value
2018-02-13T00:00:50.899Z,98751.74
2018-02-13T00:03:21.995Z,98752.11
2018-02-13T00:05:52.859Z,98748.91
2018-02-13T00:08:23.860Z,98755.69
2018-02-13T00:10:55.276Z,98754.48
2018-02-13T00:13:26.061Z,98759.50
2018-02-13T00:15:57.284Z,98757.84
2018-02-13T00:18:28.045Z,98759.53
2018-02-13T00:20:58.816Z,98750.89
2018-02-13T00:23:29.587Z,98765.17
2018-02-13T00:26:01.000Z,98760.20
2018-02-13T00:28:31.752Z,98770.75
2018-02-13T00:31:03.225Z,98771.07
2018-02-13T00:33:36.270Z,98770.74
2018-02-13T00:36:07.092Z,98769.79
2018-02-13T00:38:38.136Z,98767.42
2018-02-13T00:41:09.360Z,98765.70
2018-02-13T00:43:40.276Z,98768.38
2018-02-13T00:46:11.921Z,98769.58
2018-02-13T00:48:43.178Z,98762.75
2018-02-13T00:51:14.049Z,98768.59
2018-02-13T00:53:44.920Z,98767.96
2018-02-13T00:56:15.777Z,98762.13
2018-02-13T00:58:46.612Z,98761.54
2018-02-13T01:01:17.724Z,98756.73
2018-02-13T01:03:48.534Z,98762.31
2018-02-13T01:06:19.304Z,98762.17
2018-02-13T01:08:50.762Z,98767.53
2018-02-13T01:11:22.081Z,98762.62
2018-02-13T01:13:52.898Z,98763.73
2018-02-13T01:16:23.656Z,98759.45
2018-02-13T01:18:54.797Z,98762.09
2018-02-13T01:21:25.952Z,98765.06
2018-02-13T01:23:57.500Z,98759.84
2018-02-13T01:26:29.366Z,98759.63
2018-02-13T01:29:00.436Z,98763.08
2018-02-13T01:31:32.220Z,98762.52
2018-02-13T01:34:03.827Z,98766.23
2018-02-13T01:36:35.320Z,98767.80
2018-02-13T01:39:07.108Z,98767.72
2018-02-13T01:41:38.556Z,98760.60
2018-02-13T01:44:09.996Z,98765.56
2018-02-13T01:46:41.876Z,98761.96
2018-02-13T01:49:12.672Z,98763.56
2018-02-13T01:51:43.581Z,98761.64
2018-02-13T01:54:15.483Z,98763.66
2018-02-13T01:56:46.868Z,98766.74
2018-02-13T01:59:18.207Z,98762.17
2018-02-13T02:01:50.072Z,98770.18
2018-02-13T02:04:21.782Z,98757.89
2018-02-13T02:06:52.900Z,98757.64
2018-02-13T02:09:24.484Z,98758.85
2018-02-13T02:11:55.777Z,98758.69
2018-02-13T02:14:27.553Z,98749.85
2018-02-13T02:16:58.952Z,98755.38
2018-02-13T02:19:30.925Z,98755.69
2018-02-13T02:22:02.719Z,98748.97
2018-02-13T02:24:34.872Z,98746.73
2018-02-13T02:27:06.007Z,98754.08
2018-02-13T02:29:37.825Z,98734.55
2018-02-13T02:32:08.956Z,98744.27
2018-02-13T02:34:40.806Z,98743.88
2018-02-13T02:37:11.961Z,98742.20
2018-02-13T02:39:43.418Z,98743.08
2018-02-13T02:42:14.877Z,98741.04
2018-02-13T02:44:45.796Z,98741.23
2018-02-13T02:47:17.094Z,98740.67
2018-02-13T02:49:48.607Z,98745.06
2018-02-13T02:52:19.768Z,98747.01
2018-02-13T02:54:51.178Z,98745.81
2018-02-13T02:57:22.523Z,98745.77
2018-02-13T02:59:54.025Z,98751.03
2018-02-13T03:02:25.655Z,98743.78
2018-02-13T03:04:56.953Z,98749.47
2018-02-13T03:07:28.418Z,98750.61
2018-02-13T03:10:00.402Z,98747.80
2018-02-13T03:12:32.101Z,98746.86
2018-02-13T03:15:03.649Z,98746.30
2018-02-13T03:17:35.508Z,98744.91
2018-02-13T03:20:06.664Z,98751.72
2018-02-13T03:22:37.917Z,98751.63
2018-02-13T03:25:09.161Z,98747.12
2018-02-13T03:27:40.324Z,98746.31
2018-02-13T03:30:11.825Z,98742.05
2018-02-13T03:32:43.792Z,98747.55
2018-02-13T03:35:15.120Z,98747.14
2018-02-13T03:37:46.632Z,98741.13
2018-02-13T03:40:18.292Z,98740.54
2018-02-13T03:42:49.574Z,98748.27
2018-02-13T03:45:20.641Z,98745.55
2018-02-13T03:47:52.161Z,98742.77
2018-02-13T03:50:23.333Z,98748.27
2018-02-13T03:52:54.686Z,98747.50
2018-02-13T03:55:25.893Z,98747.56
2018-02-13T03:57:57.249Z,98742.23
2018-02-13T04:00:28.285Z,98745.59
2018-02-13T04:03:00.045Z,98741.81
2018-02-13T04:05:31.592Z,98745.99
2018-02-13T04:08:02.720Z,98747.59
2018-02-13T04:10:34.429Z,98748.99
2018-02-13T04:13:05.742Z,98752.84
2018-02-13T04:15:37.302Z,98749.11
2018-02-13T04:18:08.756Z,98747.20
2018-02-13T04:20:40.273Z,98744.70
2018-02-13T04:23:11.437Z,98746.69
2018-02-13T04:25:42.746Z,98746.97
2018-02-13T04:28:14.236Z,98749.16
2018-02-13T04:30:45.975Z,98744.77
2018-02-13T04:33:17.460Z,98748.01
2018-02-13T04:35:49.596Z,98747.33
2018-02-13T04:38:21.601Z,98741.30
2018-02-13T04:40:53.031Z,98742.73
2018-02-13T04:43:24.425Z,98740.46
2018-02-13T04:45:55.821Z,98742.68
2018-02-13T04:48:27.266Z,98750.01
2018-02-13T04:50:58.816Z,98745.77
2018-02-13T04:53:30.344Z,98744.66
2018-02-13T04:56:02.105Z,98739.08
2018-02-13T04:58:34.693Z,98734.73
2018-02-13T05:01:05.860Z,98734.23
2018-02-13T05:03:37.601Z,98738.14
2018-02-13T05:06:09.185Z,98732.16
2018-02-13T05:08:40.776Z,98735.94
2018-02-13T05:11:12.057Z,98740.23
2018-02-13T05:13:43.472Z,98732.48
2018-02-13T05:16:14.838Z,98737.05
2018-02-13T05:18:46.497Z,98729.04
2018-02-13T05:21:17.916Z,98721.92
2018-02-13T05:23:49.092Z,98728.45
2018-02-13T05:26:20.965Z,98731.69
2018-02-13T05:28:52.277Z,98726.38
2018-02-13T05:31:23.572Z,98720.77
2018-02-13T05:33:55.539Z,98726.59
2018-02-13T05:36:27.278Z,98726.66
2018-02-13T05:38:59.288Z,98716.06
2018-02-13T05:41:30.851Z,98725.86
2018-02-13T05:44:02.483Z,98719.18
2018-02-13T05:46:34.730Z,98721.28
2018-02-13T05:49:06.328Z,98715.41
2018-02-13T05:51:37.489Z,98716.81
2018-02-13T05:54:09.325Z,98726.31
2018-02-13T05:56:40.640Z,98721.09
2018-02-13T05:59:12.227Z,98723.70
2018-02-13T06:01:44.221Z,98728.01
2018-02-13T06:04:15.769Z,98715.81
2018-02-13T06:06:46.586Z,98716.27
2018-02-13T06:09:18.388Z,98723.34
2018-02-13T06:11:50.141Z,98720.53
2018-02-13T06:14:21.208Z,98717.22
2018-02-13T06:16:54.272Z,98716.70
2018-02-13T06:19:26.435Z,98711.39
2018-02-13T06:22:00.200Z,98715.95
2018-02-13T06:24:31.008Z,98719.80
2018-02-13T06:27:02.072Z,98721.21
2018-02-13T06:29:35.673Z,98720.74
2018-02-13T06:32:06.916Z,98716.88
2018-02-13T06:34:41.722Z,98727.38
2018-02-13T06:37:13.517Z,98728.62
2018-02-13T06:39:44.385Z,98733.47
2018-02-13T06:42:15.480Z,98727.21
2018-02-13T06:44:46.268Z,98735.16
2018-02-13T06:47:17.064Z,98727.70
2018-02-13T06:49:48.264Z,98727.14
2018-02-13T06:52:19.056Z,98732.25
2018-02-13T06:54:49.900Z,98729.94
2018-02-13T06:57:21.015Z,98724.00
2018-02-13T06:59:52.611Z,98724.31
2018-02-13T07:02:24.322Z,98724.04
2018-02-13T07:04:55.401Z,98723.23
2018-02-13T07:07:26.649Z,98724.92
2018-02-13T07:09:58.747Z,98724.67
2018-02-13T07:12:29.788Z,98722.59
2018-02-13T07:15:00.916Z,98729.02
2018-02-13T07:17:31.709Z,98720.02
2018-02-13T07:20:02.543Z,98718.85
2018-02-13T07:22:34.380Z,98717.34
2018-02-13T07:25:06.049Z,98725.84
2018-02-13T07:27:37.125Z,98724.28
2018-02-13T07:30:08.449Z,98724.64
2018-02-13T07:32:40.236Z,98727.56
2018-02-13T07:35:11.396Z,98722.73
2018-02-13T07:37:42.830Z,98726.69
2018-02-13T07:40:14.325Z,98732.64
2018-02-13T07:42:45.781Z,98730.07
2018-02-13T07:45:17.017Z,98735.43
2018-02-13T07:47:47.877Z,98731.02
2018-02-13T07:50:19.644Z,98740.34
2018-02-13T07:52:50.920Z,98731.91
2018-02-13T07:55:22.424Z,98744.08
2018-02-13T07:57:53.801Z,98737.97
2018-02-13T08:00:24.708Z,98734.30
2018-02-13T08:02:55.845Z,98737.59
2018-02-13T08:05:27.560Z,98739.23
2018-02-13T08:07:58.413Z,98738.13
2018-02-13T08:10:29.236Z,98735.53
2018-02-13T08:13:00.444Z,98736.30
2018-02-13T08:15:33.520Z,98733.73
2018-02-13T08:18:04.790Z,98731.58
2018-02-13T08:20:35.950Z,98743.11
2018-02-13T08:23:06.711Z,98735.78
2018-02-13T08:25:37.745Z,98736.66
2018-02-13T08:28:08.619Z,98741.63
2018-02-13T08:30:39.450Z,98743.65
2018-02-13T08:33:11.172Z,98737.18
2018-02-13T08:35:42.369Z,98733.73
2018-02-13T08:38:13.163Z,98734.20
2018-02-13T08:40:44.661Z,98737.09
2018-02-13T08:43:16.833Z,98733.72
2018-02-13T08:45:47.656Z,98728.91
2018-02-13T08:48:19.080Z,98731.16
2018-02-13T08:50:50.713Z,98735.54
2018-02-13T08:53:21.584Z,98741.50
2018-02-13T08:55:52.841Z,98739.48
2018-02-13T08:58:23.973Z,98740.49
2018-02-13T09:00:54.813Z,98734.58
2018-02-13T09:03:26.229Z,98737.70
2018-02-13T09:05:57.040Z,98737.52
2018-02-13T09:08:28.108Z,98740.36
2018-02-13T09:10:58.992Z,98743.95
2018-02-13T09:13:29.751Z,98738.50
2018-02-13T09:16:00.540Z,98737.31
2018-02-13T09:18:32.220Z,98737.56
2018-02-13T09:21:02.961Z,98732.16
2018-02-13T09:23:34.130Z,98735.23
2018-02-13T09:26:05.133Z,98727.55
2018-02-13T09:28:35.904Z,98725.86
2018-02-13T09:31:07.568Z,98732.93
2018-02-13T09:33:38.968Z,98729.85
2018-02-13T09:36:10.165Z,98727.44
2018-02-13T09:38:40.956Z,98725.52
2018-02-13T09:41:12.140Z,98723.34
2018-02-13T09:43:43.401Z,98724.28
2018-02-13T09:46:15.005Z,98725.12
2018-02-13T09:48:46.108Z,98722.24
2018-02-13T09:51:17.478Z,98723.87
2018-02-13T09:53:48.868Z,98719.20
2018-02-13T09:56:20.458Z,98722.00
2018-02-13T09:58:51.748Z,98720.45
2018-02-13T10:01:22.629Z,98715.35
2018-02-13T10:03:53.988Z,98714.69
2018-02-13T10:06:25.134Z,98713.40
2018-02-13T10:08:56.593Z,98718.50
2018-02-13T10:11:27.420Z,98711.63
2018-02-13T10:13:58.213Z,98714.38
2018-02-13T10:16:29.874Z,98714.39
2018-02-13T10:19:00.713Z,98703.44
2018-02-13T10:21:31.772Z,98708.06
2018-02-13T10:24:02.948Z,98701.94
2018-02-13T10:26:34.533Z,98705.08
2018-02-13T10:29:05.373Z,98701.19
2018-02-13T10:31:37.329Z,98698.98
2018-02-13T10:34:08.108Z,98695.48
2018-02-13T10:36:39.920Z,98695.02
2018-02-13T10:39:10.972Z,98692.53
2018-02-13T10:41:41.758Z,98691.33
2018-02-13T10:44:13.290Z,98696.65
2018-02-13T10:46:44.785Z,98683.46
2018-02-13T10:49:15.493Z,98680.45
2018-02-13T10:51:46.761Z,98682.16
2018-02-13T10:54:18.432Z,98675.27
2018-02-13T10:56:49.734Z,98671.88
2018-02-13T10:59:21.540Z,98675.33
2018-02-13T11:01:56.444Z,98675.32
2018-02-13T11:04:27.261Z,98669.45
2018-02-13T11:06:58.318Z,98667.70
2018-02-13T11:09:29.188Z,98669.92
2018-02-13T11:12:00.065Z,98662.52
2018-02-13T11:14:31.311Z,98661.65
2018-02-13T11:17:02.082Z,98655.42
2018-02-13T11:19:32.917Z,98648.73
2018-02-13T11:22:04.870Z,98652.50
2018-02-13T11:24:35.626Z,98647.26
2018-02-13T11:27:06.766Z,98647.72
2018-02-13T11:29:38.192Z,98645.00
2018-02-13T11:32:09.056Z,98643.94
2018-02-13T11:34:40.505Z,98643.38
2018-02-13T11:37:11.786Z,98639.06
2018-02-13T11:39:42.613Z,98635.00
2018-02-13T11:42:13.380Z,98632.14
2018-02-13T11:44:44.296Z,98631.54
2018-02-13T11:47:15.433Z,98622.95
2018-02-13T11:49:46.270Z,98626.73
2018-02-13T11:52:17.031Z,98622.41
2018-02-13T11:54:48.148Z,98612.19
2018-02-13T11:57:19.016Z,98614.83
2018-02-13T11:59:49.890Z,98607.60
2018-02-13T12:02:21.004Z,98613.03
2018-02-13T12:04:51.745Z,98611.55
2018-02-13T12:07:22.526Z,98608.17
2018-02-13T12:09:53.712Z,98606.71
2018-02-13T12:12:24.520Z,98605.67
2018-02-13T12:14:56.184Z,98603.69
2018-02-13T12:17:27.052Z,98599.47
2018-02-13T12:19:57.873Z,98594.81
2018-02-13T12:22:29.041Z,98596.55
2018-02-13T12:24:59.812Z,98588.27
2018-02-13T12:27:31.208Z,98590.80
2018-02-13T12:30:02.352Z,98584.50
2018-02-13T12:32:34.049Z,98582.84
2018-02-13T12:35:05.054Z,98582.09
2018-02-13T12:37:36.224Z,98586.91
2018-02-13T12:40:07.110Z,98575.25
2018-02-13T12:42:39.195Z,98575.72
2018-02-13T12:45:10.161Z,98578.81
2018-02-13T12:47:41.504Z,98574.12
2018-02-13T12:50:12.712Z,98568.97
2018-02-13T12:52:43.724Z,98569.60
2018-02-13T12:55:15.147Z,98570.41
2018-02-13T12:57:46.528Z,98566.52
2018-02-13T13:00:17.655Z,98562.05
2018-02-13T13:02:49.797Z,98563.23
2018-02-13T13:05:20.822Z,98561.61
2018-02-13T13:07:52.529Z,98552.13
2018-02-13T13:10:23.722Z,98548.82
2018-02-13T13:12:54.534Z,98549.41
2018-02-13T13:15:25.616Z,98542.10
2018-02-13T13:17:56.440Z,98543.72
2018-02-13T13:20:27.904Z,98544.22
2018-02-13T13:22:59.662Z,98535.41
2018-02-13T13:25:30.563Z,98536.81
2018-02-13T13:28:01.753Z,98538.61
2018-02-13T13:30:33.345Z,98537.37
2018-02-13T13:33:04.324Z,98530.78
2018-02-13T13:35:35.433Z,98532.97
2018-02-13T13:38:06.257Z,98531.01
2018-02-13T13:40:37.061Z,98528.38
2018-02-13T13:43:08.167Z,98525.59
2018-02-13T13:45:39.028Z,98517.36
2018-02-13T13:48:09.805Z,98522.87
2018-02-13T13:50:41.248Z,98516.69
2018-02-13T13:53:12.107Z,98518.59
2018-02-13T13:55:42.962Z,98516.74
2018-02-13T13:58:14.017Z,98502.84
2018-02-13T14:00:44.876Z,98508.98
2018-02-13T14:03:15.960Z,98512.02
2018-02-13T14:05:46.820Z,98503.86
2018-02-13T14:08:17.584Z,98501.41
2018-02-13T14:10:48.422Z,98496.42
2018-02-13T14:13:19.230Z,98498.42
2018-02-13T14:15:50.112Z,98497.70
2018-02-13T14:18:21.185Z,98498.42
2018-02-13T14:20:52.039Z,98502.25
2018-02-13T14:23:22.829Z,98497.84
2018-02-13T14:25:53.655Z,98494.01
2018-02-13T14:28:24.468Z,98495.00
2018-02-13T14:30:55.244Z,98494.41
2018-02-13T14:33:26.321Z,98492.28
2018-02-13T14:35:58.904Z,98488.41
2018-02-13T14:38:29.718Z,98490.83
2018-02-13T14:41:00.565Z,98495.38
2018-02-13T14:43:31.349Z,98495.81
2018-02-13T14:46:02.495Z,98490.30
2018-02-13T14:48:33.273Z,98491.70
2018-02-13T14:51:04.609Z,98490.73
2018-02-13T14:53:35.438Z,98491.02
2018-02-13T14:56:06.664Z,98492.16
2018-02-13T14:58:37.512Z,98498.51
2018-02-13T15:01:08.400Z,98496.45
2018-02-13T15:03:39.209Z,98492.80
2018-02-13T15:06:10.043Z,98490.98
2018-02-13T15:08:40.984Z,98497.52
2018-02-13T15:11:12.073Z,98493.77
2018-02-13T15:13:43.476Z,98495.86
2018-02-13T15:16:14.380Z,98502.48
2018-02-13T15:18:45.408Z,98498.66
2018-02-13T15:21:16.237Z,98501.66
2018-02-13T15:23:47.025Z,98496.61
2018-02-13T15:26:18.229Z,98502.55
2018-02-13T15:28:49.314Z,98502.39
2018-02-13T15:31:20.321Z,98504.39
2018-02-13T15:33:51.153Z,98507.26
2018-02-13T15:36:22.388Z,98507.82
2018-02-13T15:38:53.287Z,98509.20
2018-02-13T15:41:24.395Z,98507.60
2018-02-13T15:43:55.755Z,98508.64
2018-02-13T15:46:26.949Z,98502.45
2018-02-13T15:48:58.049Z,98508.50
2018-02-13T15:51:28.889Z,98505.83
2018-02-13T15:53:59.729Z,98506.80
2018-02-13T15:56:30.617Z,98503.28
2018-02-13T15:59:01.768Z,98502.05
2018-02-13T16:01:32.536Z,98506.55
2018-02-13T16:04:03.408Z,98502.38
2018-02-13T16:06:35.048Z,98505.00
2018-02-13T16:09:06.456Z,98507.78
2018-02-13T16:11:37.506Z,98506.94
2018-02-13T16:14:08.323Z,98505.41
2018-02-13T16:16:39.113Z,98504.52
2018-02-13T16:19:10.209Z,98508.02
2018-02-13T16:21:41.100Z,98506.73
2018-02-13T16:24:12.400Z,98507.73
2018-02-13T16:26:43.289Z,98503.09
2018-02-13T16:29:14.153Z,98500.60
2018-02-13T16:31:45.052Z,98502.58
2018-02-13T16:34:16.213Z,98494.64
2018-02-13T16:36:47.041Z,98500.74
2018-02-13T16:39:17.917Z,98501.47
2018-02-13T16:41:49.093Z,98504.23
2018-02-13T16:44:19.953Z,98502.66
2018-02-13T16:46:50.909Z,98499.07
2018-02-13T16:49:21.708Z,98497.63
2018-02-13T16:51:52.830Z,98496.56
2018-02-13T16:54:24.709Z,98503.87
2018-02-13T16:56:55.596Z,98497.30
2018-02-13T16:59:26.357Z,98495.11
2018-02-13T17:01:58.025Z,98501.22
2018-02-13T17:04:28.797Z,98492.41
2018-02-13T17:06:59.620Z,98490.31
2018-02-13T17:09:30.776Z,98494.53
2018-02-13T17:12:01.736Z,98494.66
2018-02-13T17:14:33.183Z,98495.52
2018-02-13T17:17:04.301Z,98493.00
2018-02-13T17:19:35.157Z,98491.04
2018-02-13T17:22:05.984Z,98492.48
2018-02-13T17:24:37.133Z,98498.94
2018-02-13T17:27:08.445Z,98496.57
2018-02-13T17:29:39.276Z,98495.18
2018-02-13T17:32:10.449Z,98504.02
2018-02-13T17:34:41.312Z,98499.52
2018-02-13T17:37:12.125Z,98503.92
2018-02-13T17:39:43.238Z,98504.35
2018-02-13T17:42:14.017Z,98510.29
2018-02-13T17:44:44.802Z,98508.75
2018-02-13T17:47:15.688Z,98510.95
2018-02-13T17:49:46.548Z,98516.19
2018-02-13T17:52:17.668Z,98512.35
2018-02-13T17:54:48.564Z,98511.37
2018-02-13T17:57:19.508Z,98517.92
2018-02-13T17:59:50.535Z,98516.70
2018-02-13T18:02:21.391Z,98522.46
2018-02-13T18:04:52.310Z,98522.27
2018-02-13T18:07:23.788Z,98529.37
2018-02-13T18:09:54.648Z,98527.05
2018-02-13T18:12:25.544Z,98522.25
2018-02-13T18:14:56.627Z,98526.62
2018-02-13T18:17:27.432Z,98531.32
2018-02-13T18:19:58.318Z,98530.63
2018-02-13T18:22:29.433Z,98528.55
2018-02-13T18:25:00.352Z,98532.41
2018-02-13T18:27:31.817Z,98535.95
2018-02-13T18:30:02.852Z,98528.63
2018-02-13T18:32:34.944Z,98531.03
2018-02-13T18:35:06.193Z,98532.64
2018-02-13T18:37:36.968Z,98529.05
2018-02-13T18:40:07.803Z,98531.52
2018-02-13T18:42:39.500Z,98529.02
2018-02-13T18:45:10.246Z,98538.50
2018-02-13T18:47:41.054Z,98536.09
2018-02-13T18:50:12.458Z,98532.14
2018-02-13T18:55:14.604Z,98537.78
2018-02-13T18:57:46.430Z,98538.13
2018-02-13T19:00:17.992Z,98541.94
2018-02-13T19:02:49.465Z,98536.17
2018-02-13T19:05:20.410Z,98536.65
2018-02-13T19:07:51.274Z,98535.39
2018-02-13T19:10:22.241Z,98536.84
2018-02-13T19:12:53.085Z,98534.51
2018-02-13T19:15:23.921Z,98537.04
2018-02-13T19:17:55.393Z,98532.69
2018-02-13T19:20:26.280Z,98536.44
2018-02-13T19:22:57.121Z,98534.51
2018-02-13T19:25:28.101Z,98536.48
2018-02-13T19:27:59.119Z,98532.64
2018-02-13T19:30:30.275Z,98529.36
2018-02-13T19:33:01.424Z,98532.56
2018-02-13T19:35:33.558Z,98531.77
2018-02-13T19:38:05.441Z,98534.80
2018-02-13T19:40:36.441Z,98536.28
2018-02-13T19:43:07.520Z,98528.84
2018-02-13T19:45:38.402Z,98529.11
2018-02-13T19:48:10.165Z,98537.06
2018-02-13T19:50:41.100Z,98531.77
2018-02-13T19:53:12.201Z,98531.58
2018-02-13T19:55:43.426Z,98532.53
2018-02-13T19:58:14.329Z,98530.11
2018-02-13T20:00:45.477Z,98530.94
2018-02-13T20:03:17.153Z,98537.75
2018-02-13T20:05:48.118Z,98533.88
2018-02-13T20:08:18.916Z,98540.40
2018-02-13T20:10:50.280Z,98535.19
2018-02-13T20:13:21.149Z,98540.55
2018-02-13T20:15:53.185Z,98541.20
2018-02-13T20:18:25.017Z,98545.55
2018-02-13T20:20:56.005Z,98537.78
2018-02-13T20:23:27.399Z,98540.86
2018-02-13T20:25:58.377Z,98546.27
2018-02-13T20:28:29.235Z,98531.17
2018-02-13T20:31:01.016Z,98541.47
2018-02-13T20:33:31.862Z,98539.67
2018-02-13T20:36:02.877Z,98538.42
2018-02-13T20:38:33.737Z,98542.77
2018-02-13T20:41:04.929Z,98551.76
2018-02-13T20:43:35.816Z,98546.69
2018-02-13T20:46:06.747Z,98556.71
2018-02-13T20:48:37.630Z,98556.10
2018-02-13T20:51:08.447Z,98554.77
2018-02-13T20:53:39.700Z,98551.48
2018-02-13T20:56:10.839Z,98563.62
2018-02-13T20:58:41.805Z,98559.28
2018-02-13T21:01:12.774Z,98564.34
2018-02-13T21:03:43.939Z,98569.55
2018-02-13T21:06:14.993Z,98563.20
2018-02-13T21:08:46.117Z,98563.31
2018-02-13T21:11:16.977Z,98569.63
2018-02-13T21:13:48.161Z,98564.88
2018-02-13T21:16:19.596Z,98564.73
2018-02-13T21:18:50.353Z,98568.28
2018-02-13T21:21:21.528Z,98574.45
2018-02-13T21:23:52.361Z,98569.92
2018-02-13T21:26:23.136Z,98565.85
2018-02-13T21:28:54.230Z,98570.77
2018-02-13T21:31:25.129Z,98569.53
2018-02-13T21:33:55.987Z,98565.66
2018-02-13T21:36:27.053Z,98567.42
2018-02-13T21:38:58.055Z,98571.23
2018-02-13T21:41:29.156Z,98572.80
2018-02-13T21:43:59.931Z,98567.04
2018-02-13T21:46:30.990Z,98564.02
2018-02-13T21:49:01.884Z,98562.34
2018-02-13T21:51:32.725Z,98565.29
2018-02-13T21:54:03.912Z,98561.98
2018-02-13T21:56:34.749Z,98569.89
2018-02-13T21:59:05.652Z,98565.41
2018-02-13T22:01:36.557Z,98564.80
2018-02-13T22:04:07.420Z,98566.57
2018-02-13T22:06:38.284Z,98570.14
2018-02-13T22:09:09.422Z,98574.94
2018-02-13T22:11:40.465Z,98568.47
2018-02-13T22:14:11.322Z,98567.80
2018-02-13T22:16:42.205Z,98569.91
2018-02-13T22:19:13.195Z,98572.27
2018-02-13T22:21:44.496Z,98574.63
2018-02-13T22:24:15.733Z,98576.34
2018-02-13T22:26:46.513Z,98574.20
2018-02-13T22:29:17.645Z,98579.66
2018-02-13T22:31:48.511Z,98578.05
2018-02-13T22:34:19.450Z,98584.77
2018-02-13T22:36:50.804Z,98583.10
2018-02-13T22:39:21.703Z,98581.58
2018-02-13T22:41:52.588Z,98585.00
2018-02-13T22:44:23.913Z,98582.20
2018-02-13T22:46:54.841Z,98580.02
2018-02-13T22:49:25.637Z,98581.16
2018-02-13T22:51:56.795Z,98578.78
2018-02-13T22:54:27.751Z,98578.89
2018-02-13T22:56:58.544Z,98580.69
2018-02-13T22:59:29.797Z,98578.11
2018-02-13T23:02:00.649Z,98574.73
2018-02-13T23:04:31.458Z,98579.45
2018-02-13T23:07:02.398Z,98580.23
2018-02-13T23:09:33.232Z,98574.34
2018-02-13T23:12:04.010Z,98573.27
2018-02-13T23:14:35.141Z,98579.02
2018-02-13T23:17:06.034Z,98573.53
2018-02-13T23:19:36.883Z,98576.03
2018-02-13T23:22:07.912Z,98585.84
2018-02-13T23:24:38.759Z,98585.75
2018-02-13T23:27:09.572Z,98592.63
2018-02-13T23:29:41.164Z,98586.80
2018-02-13T23:32:12.805Z,98589.55
2018-02-13T23:34:43.573Z,98590.19
2018-02-13T23:37:14.433Z,98590.25
2018-02-13T23:39:45.317Z,98590.39
2018-02-13T23:42:16.190Z,98592.22
2018-02-13T23:44:46.994Z,98590.61
2018-02-13T23:47:18.636Z,98592.18
2018-02-13T23:49:50.189Z,98594.09
2018-02-13T23:52:21.711Z,98596.17
2018-02-13T23:54:52.944Z,98594.88
2018-02-13T23:57:23.776Z,98590.51
2018-02-13T23:59:55.041Z,98598.89
